createdAt,value
2019-01-20T00:01:03.278Z,19.48
2019-01-20T00:03:34.564Z,21.27
2019-01-20T00:06:05.878Z,17.90
2019-01-20T00:08:37.184Z,19.82
2019-01-20T00:11:08.530Z,18.30
2019-01-20T00:13:39.781Z,16.90
2019-01-20T00:16:11.169Z,20.48
2019-01-20T00:18:42.436Z,22.95
2019-01-20T00:21:13.738Z,24.52
2019-01-20T00:23:45.031Z,22.58
2019-01-20T00:26:16.338Z,20.43
2019-01-20T00:28:47.734Z,20.48
2019-01-20T00:31:19.073Z,19.25
2019-01-20T00:33:50.831Z,21.37
2019-01-20T00:36:22.200Z,18.42
2019-01-20T00:38:55.190Z,18.52
2019-01-20T00:41:26.728Z,19.80
2019-01-20T00:43:58.143Z,20.52
2019-01-20T00:46:29.491Z,20.02
2019-01-20T00:49:00.789Z,18.37
2019-01-20T00:51:32.584Z,18.35
2019-01-20T00:54:04.351Z,19.62
2019-01-20T00:56:35.994Z,18.85
2019-01-20T00:59:07.372Z,19.60
2019-01-20T01:01:38.736Z,18.40
2019-01-20T01:04:10.015Z,21.00
2019-01-20T01:06:41.300Z,19.57
2019-01-20T01:09:12.612Z,19.75
2019-01-20T01:11:43.898Z,17.87
2019-01-20T01:14:15.246Z,21.55
2019-01-20T01:16:46.560Z,20.62
2019-01-20T01:19:17.943Z,22.80
2019-01-20T01:21:49.240Z,20.60
2019-01-20T01:24:20.661Z,18.73
2019-01-20T01:26:51.941Z,23.47
2019-01-20T01:29:23.318Z,19.50
2019-01-20T01:31:54.640Z,20.72
2019-01-20T01:34:25.870Z,19.45
2019-01-20T01:36:57.261Z,21.27
2019-01-20T01:39:28.771Z,19.98
2019-01-20T01:42:00.099Z,22.87
2019-01-20T01:44:31.344Z,24.55
2019-01-20T01:47:02.773Z,19.30
2019-01-20T01:49:34.058Z,22.35
2019-01-20T01:52:05.338Z,26.70
2019-01-20T01:54:36.630Z,21.52
2019-01-20T01:57:08.001Z,26.62
2019-01-20T01:59:39.344Z,19.42
2019-01-20T02:02:10.684Z,22.42
2019-01-20T02:04:41.971Z,22.45
2019-01-20T02:07:13.292Z,18.73
2019-01-20T02:09:44.580Z,21.45
2019-01-20T02:12:15.997Z,22.55
2019-01-20T02:14:47.269Z,21.62
2019-01-20T02:17:18.673Z,19.23
2019-01-20T02:19:50.023Z,22.67
2019-01-20T02:22:21.455Z,21.73
2019-01-20T02:24:52.739Z,16.40
2019-01-20T02:27:24.295Z,22.37
2019-01-20T02:29:55.598Z,22.42
2019-01-20T02:32:27.090Z,20.82
2019-01-20T02:34:58.498Z,17.98
2019-01-20T02:37:31.919Z,23.90
2019-01-20T02:40:10.978Z,24.45
2019-01-20T02:42:42.314Z,18.17
2019-01-20T02:45:14.598Z,22.73
2019-01-20T02:47:46.010Z,23.30
2019-01-20T02:50:17.711Z,20.60
2019-01-20T02:52:49.082Z,20.68
2019-01-20T02:55:39.308Z,21.23
2019-01-20T02:58:10.701Z,22.45
2019-01-20T03:00:42.069Z,24.18
2019-01-20T03:03:13.376Z,21.15
2019-01-20T03:05:44.846Z,21.57
2019-01-20T03:08:16.127Z,18.65
2019-01-20T03:10:47.417Z,21.48
2019-01-20T03:13:18.822Z,20.57
2019-01-20T03:15:50.132Z,20.32
2019-01-20T03:18:21.767Z,20.85
2019-01-20T03:20:53.438Z,21.57
2019-01-20T03:23:24.897Z,23.20
2019-01-20T03:25:56.186Z,23.73
2019-01-20T03:28:27.550Z,21.95
2019-01-20T03:30:59.121Z,23.75
2019-01-20T03:33:30.581Z,23.67
2019-01-20T03:36:02.040Z,25.02
2019-01-20T03:38:33.463Z,20.52
2019-01-20T03:41:04.778Z,20.05
2019-01-20T03:43:36.125Z,20.52
2019-01-20T03:46:07.396Z,18.17
2019-01-20T03:48:38.830Z,20.72
2019-01-20T03:51:10.172Z,18.65
2019-01-20T03:53:41.472Z,23.90
2019-01-20T03:56:12.893Z,21.25
2019-01-20T03:58:44.209Z,20.25
2019-01-20T04:01:34.028Z,20.40
2019-01-20T04:04:05.331Z,20.97
2019-01-20T04:06:36.655Z,18.37
2019-01-20T04:09:07.971Z,20.77
2019-01-20T04:11:39.433Z,22.77
2019-01-20T04:14:10.843Z,20.95
2019-01-20T04:16:42.131Z,19.50
2019-01-20T04:19:13.453Z,22.30
2019-01-20T04:21:44.837Z,20.72
2019-01-20T04:24:16.117Z,18.77
2019-01-20T04:26:47.400Z,22.13
2019-01-20T04:29:18.695Z,21.30
2019-01-20T04:31:50.029Z,17.75
2019-01-20T04:34:21.534Z,18.77
2019-01-20T04:36:52.879Z,19.12
2019-01-20T04:39:24.267Z,20.25
2019-01-20T04:41:55.551Z,19.92
2019-01-20T04:44:27.732Z,18.85
2019-01-20T04:46:59.134Z,17.67
2019-01-20T04:49:30.440Z,19.60
2019-01-20T04:52:01.740Z,19.45
2019-01-20T04:54:33.041Z,18.00
2019-01-20T04:57:04.334Z,18.45
2019-01-20T04:59:35.647Z,17.75
2019-01-20T05:02:06.911Z,20.80
2019-01-20T05:04:38.244Z,19.65
2019-01-20T05:07:09.613Z,17.12
2019-01-20T05:09:40.914Z,18.75
2019-01-20T05:12:12.183Z,20.30
2019-01-20T05:14:43.554Z,19.57
2019-01-20T05:17:14.828Z,18.48
2019-01-20T05:19:46.169Z,20.17
2019-01-20T05:22:17.459Z,21.70
2019-01-20T05:24:48.755Z,20.32
2019-01-20T05:27:20.052Z,16.32
2019-01-20T05:29:51.362Z,19.35
2019-01-20T05:32:22.788Z,17.90
2019-01-20T05:34:54.204Z,19.15
2019-01-20T05:37:25.744Z,21.10
2019-01-20T05:39:57.022Z,17.65
2019-01-20T05:42:28.354Z,16.73
2019-01-20T05:44:59.669Z,16.00
2019-01-20T05:47:30.945Z,18.87
2019-01-20T05:50:07.273Z,16.87
2019-01-20T05:52:38.574Z,17.17
2019-01-20T05:55:12.293Z,17.60
2019-01-20T05:57:43.596Z,17.45
2019-01-20T06:00:21.710Z,19.50
2019-01-20T06:02:53.123Z,17.65
2019-01-20T06:05:24.537Z,18.55
2019-01-20T06:07:55.865Z,18.92
2019-01-20T06:10:27.266Z,14.75
2019-01-20T06:12:58.592Z,15.48
2019-01-20T06:15:31.595Z,17.05
2019-01-20T06:18:03.531Z,20.12
2019-01-20T06:20:34.835Z,16.15
2019-01-20T06:23:06.248Z,15.15
2019-01-20T06:25:37.599Z,13.80
2019-01-20T06:28:08.903Z,15.03
2019-01-20T06:30:40.329Z,16.07
2019-01-20T06:33:11.623Z,15.70
2019-01-20T06:35:43.068Z,18.30
2019-01-20T06:38:14.377Z,18.02
2019-01-20T06:40:45.696Z,16.73
2019-01-20T06:43:17.095Z,14.00
2019-01-20T06:45:48.491Z,15.85
2019-01-20T06:48:19.847Z,13.30
2019-01-20T06:50:51.164Z,15.88
2019-01-20T06:53:22.437Z,20.97
2019-01-20T06:55:53.751Z,13.83
2019-01-20T06:58:25.065Z,16.67
2019-01-20T07:03:21.350Z,16.52
2019-01-20T07:05:52.627Z,15.20
2019-01-20T07:08:23.951Z,15.55
2019-01-20T07:10:55.466Z,14.70
2019-01-20T07:13:26.751Z,17.50
2019-01-20T07:15:58.044Z,17.50
2019-01-20T07:18:29.376Z,16.05
2019-01-20T07:21:00.699Z,15.78
2019-01-20T07:23:32.021Z,18.70
2019-01-20T07:26:03.247Z,14.45
2019-01-20T07:28:34.580Z,18.25
2019-01-20T07:31:05.922Z,14.78
2019-01-20T07:33:38.848Z,17.05
2019-01-20T07:36:14.973Z,17.32
2019-01-20T07:38:53.309Z,18.52
2019-01-20T07:41:31.442Z,21.05
2019-01-20T07:44:03.180Z,16.12
2019-01-20T07:46:53.191Z,17.75
2019-01-20T07:52:14.084Z,17.30
2019-01-20T07:54:45.442Z,15.85
2019-01-20T07:57:16.937Z,16.70
2019-01-20T07:59:48.271Z,16.00
2019-01-20T08:02:19.881Z,16.45
2019-01-20T08:04:51.297Z,17.27
2019-01-20T08:07:22.751Z,17.98
2019-01-20T08:09:54.645Z,13.65
2019-01-20T08:12:26.205Z,16.25
2019-01-20T08:14:57.673Z,16.00
2019-01-20T08:17:29.135Z,13.88
2019-01-20T08:20:00.546Z,17.52
2019-01-20T08:22:32.039Z,15.28
2019-01-20T08:25:07.011Z,17.55
2019-01-20T08:27:38.414Z,15.50
2019-01-20T08:30:13.692Z,16.93
2019-01-20T08:32:44.947Z,19.15
2019-01-20T08:35:18.058Z,17.55
2019-01-20T08:37:49.315Z,20.95
2019-01-20T08:40:24.304Z,13.48
2019-01-20T08:42:55.972Z,16.85
2019-01-20T08:46:09.206Z,19.95
2019-01-20T08:48:40.811Z,18.90
2019-01-20T08:51:12.737Z,18.07
2019-01-20T08:53:44.097Z,16.15
2019-01-20T08:56:15.426Z,16.17
2019-01-20T08:58:46.725Z,17.27
2019-01-20T09:01:18.031Z,18.42
2019-01-20T09:03:49.432Z,16.37
2019-01-20T09:06:21.226Z,14.18
2019-01-20T09:08:53.360Z,19.23
2019-01-20T09:11:24.866Z,17.50
2019-01-20T09:13:59.455Z,17.40
2019-01-20T09:16:30.880Z,16.55
2019-01-20T09:19:02.369Z,17.62
2019-01-20T09:21:33.705Z,17.17
2019-01-20T09:24:05.012Z,16.32
2019-01-20T09:26:36.304Z,17.25
2019-01-20T09:29:07.619Z,14.40
2019-01-20T09:31:38.970Z,19.27
2019-01-20T09:34:10.404Z,15.03
2019-01-20T09:36:43.321Z,19.77
2019-01-20T09:39:14.734Z,15.80
2019-01-20T09:41:46.094Z,16.02
2019-01-20T09:44:17.452Z,17.80
2019-01-20T09:46:49.100Z,17.20
2019-01-20T09:49:20.888Z,19.35
2019-01-20T09:51:52.993Z,18.15
2019-01-20T09:54:24.357Z,17.12
2019-01-20T09:56:55.796Z,19.20
2019-01-20T09:59:27.692Z,17.90
2019-01-20T10:01:59.067Z,15.95
2019-01-20T10:04:30.338Z,19.48
2019-01-20T10:07:01.957Z,18.27
2019-01-20T10:09:33.444Z,20.45
2019-01-20T10:14:54.681Z,21.87
2019-01-20T10:17:26.023Z,20.08
2019-01-20T10:19:57.439Z,19.30
2019-01-20T10:22:28.765Z,20.17
2019-01-20T10:25:00.894Z,16.35
2019-01-20T10:27:32.409Z,17.45
2019-01-20T10:30:24.623Z,17.65
2019-01-20T10:32:56.801Z,19.98
2019-01-20T10:35:30.226Z,17.07
2019-01-20T10:38:03.535Z,17.30
2019-01-20T10:40:34.822Z,16.12
2019-01-20T10:43:06.657Z,16.48
2019-01-20T10:45:38.059Z,18.30
2019-01-20T10:48:09.531Z,17.92
2019-01-20T10:50:40.942Z,16.55
2019-01-20T10:53:12.238Z,17.82
2019-01-20T10:55:43.528Z,17.20
2019-01-20T10:58:14.808Z,16.82
2019-01-20T11:00:46.103Z,17.25
2019-01-20T11:03:17.393Z,17.48
2019-01-20T11:05:48.684Z,22.85
2019-01-20T11:08:20.137Z,17.32
2019-01-20T11:10:51.625Z,14.05
2019-01-20T11:13:22.955Z,19.10
2019-01-20T11:15:54.225Z,15.58
2019-01-20T11:18:25.523Z,19.23
2019-01-20T11:20:56.817Z,18.75
2019-01-20T11:23:28.722Z,18.17
2019-01-20T11:26:00.038Z,17.65
2019-01-20T11:28:31.495Z,21.07
2019-01-20T11:31:02.908Z,15.60
2019-01-20T11:33:34.336Z,18.82
2019-01-20T11:36:05.731Z,19.30
2019-01-20T11:38:37.089Z,16.90
2019-01-20T11:41:08.380Z,20.17
2019-01-20T11:43:39.693Z,20.92
2019-01-20T11:46:10.982Z,17.25
2019-01-20T11:48:42.318Z,16.97
2019-01-20T11:51:13.727Z,17.82
2019-01-20T11:53:45.063Z,20.30
2019-01-20T11:56:16.441Z,17.67
2019-01-20T11:58:47.866Z,17.85
2019-01-20T12:01:19.370Z,15.03
2019-01-20T12:03:50.809Z,16.40
2019-01-20T12:06:22.119Z,19.60
2019-01-20T12:08:53.425Z,17.98
2019-01-20T12:11:24.788Z,14.50
2019-01-20T12:13:56.267Z,16.62
2019-01-20T12:16:27.970Z,17.77
2019-01-20T12:18:59.415Z,16.62
2019-01-20T12:21:31.018Z,16.30
2019-01-20T12:24:02.443Z,17.45
2019-01-20T12:26:33.759Z,15.90
2019-01-20T12:29:05.161Z,19.98
2019-01-20T12:31:36.829Z,15.93
2019-01-20T12:34:08.250Z,14.78
2019-01-20T12:36:39.574Z,16.93
2019-01-20T12:39:10.969Z,16.05
2019-01-20T12:41:42.296Z,16.70
2019-01-20T12:44:13.637Z,15.08
2019-01-20T12:46:45.017Z,15.65
2019-01-20T12:49:16.364Z,12.75
2019-01-20T12:51:47.858Z,15.15
2019-01-20T12:54:19.222Z,13.90
2019-01-20T12:56:50.555Z,13.40
2019-01-20T12:59:21.949Z,18.02
2019-01-20T13:01:53.346Z,15.78
2019-01-20T13:04:24.871Z,15.05
2019-01-20T13:06:56.186Z,13.38
2019-01-20T13:09:27.639Z,13.93
2019-01-20T13:11:59.149Z,15.53
2019-01-20T13:14:30.517Z,14.07
2019-01-20T13:17:01.826Z,15.78
2019-01-20T13:19:33.099Z,17.02
2019-01-20T13:22:05.305Z,16.77
2019-01-20T13:24:36.686Z,14.53
2019-01-20T13:27:07.956Z,13.30
2019-01-20T13:29:39.290Z,14.63
2019-01-20T13:32:10.631Z,12.90
2019-01-20T13:34:41.918Z,17.05
2019-01-20T13:37:13.239Z,14.15
2019-01-20T13:39:44.595Z,14.95
2019-01-20T13:42:15.934Z,14.90
2019-01-20T13:44:47.304Z,16.00
2019-01-20T13:47:18.810Z,11.88
2019-01-20T13:49:50.266Z,12.93
2019-01-20T13:52:22.007Z,22.42
2019-01-20T13:54:53.333Z,18.07
2019-01-20T13:57:24.623Z,14.13
2019-01-20T13:59:55.948Z,13.15
2019-01-20T14:02:27.252Z,15.18
2019-01-20T14:04:58.527Z,14.75
2019-01-20T14:07:29.796Z,13.93
2019-01-20T14:10:03.249Z,14.87
2019-01-20T14:12:34.529Z,14.05
2019-01-20T14:15:10.429Z,18.50
2019-01-20T14:17:42.424Z,15.05
2019-01-20T14:20:23.148Z,13.53
2019-01-20T14:22:54.412Z,13.98
2019-01-20T14:25:28.128Z,17.52
2019-01-20T14:27:59.406Z,12.40
2019-01-20T14:30:32.345Z,14.50
2019-01-20T14:33:03.899Z,14.15
2019-01-20T14:35:35.291Z,13.88
2019-01-20T14:38:06.673Z,13.88
2019-01-20T14:40:38.147Z,16.85
2019-01-20T14:43:09.523Z,16.32
2019-01-20T14:45:40.907Z,15.95
2019-01-20T14:48:12.274Z,14.45
2019-01-20T14:50:43.728Z,12.68
2019-01-20T14:53:15.003Z,14.60
2019-01-20T14:55:46.423Z,12.47
2019-01-20T14:58:17.775Z,16.55
2019-01-20T15:00:49.185Z,14.45
2019-01-20T15:03:20.452Z,15.40
2019-01-20T15:05:51.784Z,15.18
2019-01-20T15:08:23.168Z,16.42
2019-01-20T15:10:54.558Z,11.28
2019-01-20T15:13:25.961Z,14.05
2019-01-20T15:15:57.239Z,14.38
2019-01-20T15:18:28.540Z,12.33
2019-01-20T15:20:59.866Z,12.10
2019-01-20T15:23:31.275Z,13.40
2019-01-20T15:26:02.593Z,13.68
2019-01-20T15:28:33.904Z,15.80
2019-01-20T15:31:05.602Z,15.08
2019-01-20T15:33:36.882Z,19.65
2019-01-20T15:36:08.201Z,18.77
2019-01-20T15:38:39.475Z,15.32
2019-01-20T15:41:10.829Z,16.12
2019-01-20T15:43:42.165Z,15.00
2019-01-20T15:46:13.466Z,18.80
2019-01-20T15:48:44.721Z,17.98
2019-01-20T15:51:16.019Z,20.52
2019-01-20T15:53:47.317Z,15.25
2019-01-20T15:56:18.631Z,17.07
2019-01-20T15:58:49.912Z,19.40
2019-01-20T16:01:21.324Z,18.67
2019-01-20T16:03:52.746Z,22.10
2019-01-20T16:06:24.142Z,22.62
2019-01-20T16:08:55.534Z,20.27
2019-01-20T16:11:31.247Z,20.85
2019-01-20T16:14:00.586Z,18.40
2019-01-20T16:16:31.919Z,24.27
2019-01-20T16:19:03.202Z,28.83
2019-01-20T16:21:34.536Z,27.05
2019-01-20T16:24:05.858Z,30.92
2019-01-20T16:26:37.162Z,21.48
2019-01-20T16:29:08.729Z,24.30
2019-01-20T16:31:40.013Z,17.45
2019-01-20T16:34:11.332Z,23.00
2019-01-20T16:36:42.630Z,21.17
2019-01-20T16:39:14.206Z,24.70
2019-01-20T16:41:45.511Z,19.00
2019-01-20T16:44:16.980Z,26.55
2019-01-20T16:49:38.258Z,21.40
2019-01-20T16:52:10.749Z,19.52
2019-01-20T16:54:42.218Z,21.40
2019-01-20T16:57:13.657Z,24.63
2019-01-20T16:59:45.297Z,23.22
2019-01-20T17:02:16.610Z,23.98
2019-01-20T17:04:48.109Z,20.30
2019-01-20T17:07:19.547Z,21.42
2019-01-20T17:09:50.916Z,18.73
2019-01-20T17:12:22.339Z,19.73
2019-01-20T17:14:53.780Z,23.18
2019-01-20T17:17:25.374Z,24.35
2019-01-20T17:19:56.801Z,22.27
2019-01-20T17:22:28.146Z,23.32
2019-01-20T17:24:59.443Z,32.35
2019-01-20T17:27:30.775Z,35.92
2019-01-20T17:30:06.744Z,34.10
2019-01-20T17:32:38.358Z,39.80
2019-01-20T17:35:10.184Z,36.75
2019-01-20T17:37:41.591Z,34.00
2019-01-20T17:40:19.679Z,30.62
2019-01-20T17:42:51.248Z,36.35
2019-01-20T17:45:28.978Z,34.48
2019-01-20T17:48:00.539Z,38.00
2019-01-20T17:50:35.477Z,26.37
2019-01-20T17:53:08.326Z,23.42
2019-01-20T17:55:39.725Z,28.80
2019-01-20T17:58:11.131Z,21.95
2019-01-20T18:00:44.522Z,22.13
2019-01-20T18:03:16.036Z,24.72
2019-01-20T18:05:47.387Z,21.90
2019-01-20T18:08:18.837Z,23.75
2019-01-20T18:10:50.121Z,24.18
2019-01-20T18:13:21.393Z,25.65
2019-01-20T18:15:54.652Z,22.00
2019-01-20T18:18:25.971Z,22.40
2019-01-20T18:20:57.359Z,19.82
2019-01-20T18:23:28.645Z,26.73
2019-01-20T18:25:59.980Z,27.82
2019-01-20T18:28:31.359Z,20.80
2019-01-20T18:31:02.692Z,19.92
2019-01-20T18:33:34.127Z,22.15
2019-01-20T18:36:05.556Z,18.87
2019-01-20T18:38:37.022Z,27.07
2019-01-20T18:41:08.409Z,19.77
2019-01-20T18:43:39.694Z,27.50
2019-01-20T18:46:11.070Z,31.23
2019-01-20T18:48:42.503Z,31.62
2019-01-20T18:51:13.845Z,36.53
2019-01-20T18:53:45.330Z,38.55
2019-01-20T18:56:16.723Z,30.88
2019-01-20T18:58:50.825Z,27.37
2019-01-20T19:01:22.827Z,30.23
2019-01-20T19:03:54.369Z,24.27
2019-01-20T19:06:25.810Z,23.95
2019-01-20T19:08:57.352Z,25.02
2019-01-20T19:11:28.802Z,22.80
2019-01-20T19:14:00.134Z,27.15
2019-01-20T19:16:31.471Z,23.10
2019-01-20T19:19:03.156Z,27.45
2019-01-20T19:21:34.478Z,23.45
2019-01-20T19:24:05.771Z,25.75
2019-01-20T19:26:37.066Z,26.20
2019-01-20T19:29:08.363Z,23.22
2019-01-20T19:31:39.942Z,24.10
2019-01-20T19:34:11.303Z,24.47
2019-01-20T19:36:42.697Z,20.72
2019-01-20T19:39:13.979Z,29.87
2019-01-20T19:41:45.432Z,22.70
2019-01-20T19:44:16.888Z,25.57
2019-01-20T19:46:48.227Z,26.07
2019-01-20T19:49:19.543Z,24.75
2019-01-20T19:51:50.880Z,26.85
2019-01-20T19:54:22.218Z,23.22
2019-01-20T19:56:53.623Z,25.65
2019-01-20T19:59:25.045Z,28.17
2019-01-20T20:01:56.335Z,22.67
2019-01-20T20:04:27.755Z,24.45
2019-01-20T20:07:02.078Z,26.12
2019-01-20T20:09:33.738Z,23.87
2019-01-20T20:12:05.243Z,24.87
2019-01-20T20:14:36.565Z,27.82
2019-01-20T20:17:07.889Z,25.65
2019-01-20T20:19:39.247Z,25.62
2019-01-20T20:25:00.752Z,27.32
2019-01-20T20:27:32.110Z,26.70
2019-01-20T20:30:20.391Z,30.08
2019-01-20T20:32:51.821Z,25.00
2019-01-20T20:35:23.098Z,24.35
2019-01-20T20:37:54.411Z,24.82
2019-01-20T20:40:25.829Z,27.50
2019-01-20T20:42:58.193Z,24.72
2019-01-20T20:45:29.767Z,26.10
2019-01-20T20:48:01.446Z,28.23
2019-01-20T20:50:32.871Z,23.92
2019-01-20T20:53:04.197Z,26.97
2019-01-20T20:55:35.544Z,24.98
2019-01-20T20:58:06.891Z,24.50
2019-01-20T21:00:38.495Z,30.05
2019-01-20T21:06:00.712Z,27.98
2019-01-20T21:08:32.247Z,26.85
2019-01-20T21:11:03.659Z,28.60
2019-01-20T21:13:35.251Z,27.10
2019-01-20T21:16:06.760Z,30.60
2019-01-20T21:18:38.106Z,29.75
2019-01-20T21:21:09.418Z,30.85
2019-01-20T21:23:40.790Z,39.88
2019-01-20T21:26:12.240Z,39.42
2019-01-20T21:28:43.548Z,43.52
2019-01-20T21:31:14.872Z,40.83
2019-01-20T21:33:46.430Z,39.48
2019-01-20T21:36:18.473Z,35.40
2019-01-20T21:38:49.903Z,32.70
2019-01-20T21:41:21.363Z,29.40
2019-01-20T21:43:52.686Z,36.85
2019-01-20T21:46:24.026Z,37.35
2019-01-20T21:48:55.341Z,37.40
2019-01-20T21:51:26.736Z,43.23
2019-01-20T21:53:58.364Z,48.40
2019-01-20T21:56:29.895Z,54.15
2019-01-20T21:59:03.817Z,47.88
2019-01-20T22:01:35.682Z,46.65
2019-01-20T22:04:07.081Z,54.50
2019-01-20T22:06:38.564Z,52.25
2019-01-20T22:09:09.872Z,54.48
2019-01-20T22:11:41.214Z,52.45
2019-01-20T22:14:12.506Z,53.28
2019-01-20T22:16:43.939Z,56.02
2019-01-20T22:19:15.203Z,55.28
2019-01-20T22:21:46.536Z,48.10
2019-01-20T22:24:17.863Z,53.20
2019-01-20T22:26:49.190Z,43.63
2019-01-20T22:29:21.096Z,42.17
2019-01-20T22:31:52.513Z,44.98
2019-01-20T22:34:27.068Z,50.40
2019-01-20T22:36:58.482Z,42.45
2019-01-20T22:39:29.987Z,41.28
2019-01-20T22:42:01.671Z,34.10
2019-01-20T22:44:33.027Z,38.10
2019-01-20T22:47:04.856Z,40.58
2019-01-20T22:49:36.208Z,41.53
2019-01-20T22:52:08.307Z,40.28
2019-01-20T22:54:39.976Z,42.05
2019-01-20T22:57:11.664Z,45.43
2019-01-20T22:59:43.272Z,40.65
2019-01-20T23:02:14.957Z,43.65
2019-01-20T23:04:46.238Z,44.15
2019-01-20T23:07:19.593Z,45.33
2019-01-20T23:09:50.924Z,46.00
2019-01-20T23:12:22.348Z,44.42
2019-01-20T23:14:53.698Z,46.10
2019-01-20T23:17:25.137Z,52.38
2019-01-20T23:19:56.458Z,52.20
2019-01-20T23:22:28.102Z,56.53
2019-01-20T23:24:59.481Z,54.75
2019-01-20T23:27:30.987Z,56.45
2019-01-20T23:30:06.394Z,52.67
2019-01-20T23:32:37.680Z,53.55
2019-01-20T23:35:08.982Z,57.48
2019-01-20T23:37:40.315Z,52.98
2019-01-20T23:40:14.925Z,55.45
2019-01-20T23:42:46.642Z,51.18
2019-01-20T23:45:17.928Z,46.85
2019-01-20T23:47:49.297Z,51.00
2019-01-20T23:50:20.626Z,53.38
2019-01-20T23:52:52.013Z,47.30
2019-01-20T23:55:23.349Z,53.73
2019-01-20T23:57:54.776Z,49.45
